sensor_id;sensor_type;location;lat;lon;timestamp;temperature;humidity
8820;DHT22;4446;50.876;4.736;2023-03-14T00:00:05;11.50;99.90
8820;DHT22;4446;50.876;4.736;2023-03-14T00:02:33;11.50;99.90
8820;DHT22;4446;50.876;4.736;2023-03-14T00:05:00;11.50;99.90
8820;DHT22;4446;50.876;4.736;2023-03-14T00:07:32;11.40;99.90
8820;DHT22;4446;50.876;4.736;2023-03-14T00:10:03;11.40;99.90
8820;DHT22;4446;50.876;4.736;2023-03-14T00:12:31;11.40;99.90
8820;DHT22;4446;50.876;4.736;2023-03-14T00:14:58;11.40;99.90
8820;DHT22;4446;50.876;4.736;2023-03-14T00:17:26;11.40;99.90
8820;DHT22;4446;50.876;4.736;2023-03-14T00:19:53;11.40;99.90
8820;DHT22;4446;50.876;4.736;2023-03-14T00:22:20;11.40;99.90
8820;DHT22;4446;50.876;4.736;2023-03-14T00:24:47;11.40;99.90
8820;DHT22;4446;50.876;4.736;2023-03-14T00:27:15;11.40;99.90
8820;DHT22;4446;50.876;4.736;2023-03-14T00:29:42;11.40;99.90
8820;DHT22;4446;50.876;4.736;2023-03-14T00:32:10;11.40;99.90
8820;DHT22;4446;50.876;4.736;2023-03-14T00:34:37;11.30;99.90
8820;DHT22;4446;50.876;4.736;2023-03-14T00:37:04;11.40;99.90
8820;DHT22;4446;50.876;4.736;2023-03-14T00:39:31;11.30;99.90
8820;DHT22;4446;50.876;4.736;2023-03-14T00:41:58;11.10;99.90
8820;DHT22;4446;50.876;4.736;2023-03-14T00:44:26;11.20;99.90
8820;DHT22;4446;50.876;4.736;2023-03-14T00:46:53;11.20;99.90
8820;DHT22;4446;50.876;4.736;2023-03-14T00:49:20;11.10;99.90
8820;DHT22;4446;50.876;4.736;2023-03-14T00:51:47;11.10;99.90
8820;DHT22;4446;50.876;4.736;2023-03-14T00:54:13;11.10;99.90
8820;DHT22;4446;50.876;4.736;2023-03-14T00:56:40;11.10;99.90
8820;DHT22;4446;50.876;4.736;2023-03-14T00:59:07;11.00;99.90
8820;DHT22;4446;50.876;4.736;2023-03-14T01:01:36;11.00;99.90
8820;DHT22;4446;50.876;4.736;2023-03-14T01:04:02;11.00;99.90
8820;DHT22;4446;50.876;4.736;2023-03-14T01:06:29;11.00;99.90
8820;DHT22;4446;50.876;4.736;2023-03-14T01:08:57;11.00;99.90
8820;DHT22;4446;50.876;4.736;2023-03-14T01:11:26;11.00;99.90
8820;DHT22;4446;50.876;4.736;2023-03-14T01:13:53;11.00;99.90
8820;DHT22;4446;50.876;4.736;2023-03-14T01:16:22;11.00;99.90
8820;DHT22;4446;50.876;4.736;2023-03-14T01:18:50;10.90;99.90
8820;DHT22;4446;50.876;4.736;2023-03-14T01:21:19;10.90;99.90
8820;DHT22;4446;50.876;4.736;2023-03-14T01:23:47;11.00;99.90
8820;DHT22;4446;50.876;4.736;2023-03-14T01:26:16;10.90;99.90
8820;DHT22;4446;50.876;4.736;2023-03-14T01:28:44;11.00;99.90
8820;DHT22;4446;50.876;4.736;2023-03-14T01:31:12;11.00;99.90
8820;DHT22;4446;50.876;4.736;2023-03-14T01:33:40;11.00;99.90
8820;DHT22;4446;50.876;4.736;2023-03-14T01:36:10;11.00;99.90
8820;DHT22;4446;50.876;4.736;2023-03-14T01:38:38;10.90;99.90
8820;DHT22;4446;50.876;4.736;2023-03-14T01:41:06;10.80;99.90
8820;DHT22;4446;50.876;4.736;2023-03-14T01:43:34;10.80;99.90
8820;DHT22;4446;50.876;4.736;2023-03-14T01:46:22;10.70;99.90
8820;DHT22;4446;50.876;4.736;2023-03-14T01:49:01;10.60;99.90
8820;DHT22;4446;50.876;4.736;2023-03-14T01:51:36;10.40;99.90
8820;DHT22;4446;50.876;4.736;2023-03-14T01:54:08;10.30;99.90
8820;DHT22;4446;50.876;4.736;2023-03-14T01:56:37;10.20;99.90
8820;DHT22;4446;50.876;4.736;2023-03-14T01:59:07;10.20;99.90
8820;DHT22;4446;50.876;4.736;2023-03-14T02:01:35;10.10;99.90
8820;DHT22;4446;50.876;4.736;2023-03-14T02:04:05;10.20;99.90
8820;DHT22;4446;50.876;4.736;2023-03-14T02:06:40;10.30;99.90
8820;DHT22;4446;50.876;4.736;2023-03-14T02:09:09;10.30;99.90
8820;DHT22;4446;50.876;4.736;2023-03-14T02:11:36;10.40;99.90
8820;DHT22;4446;50.876;4.736;2023-03-14T02:14:03;10.30;99.90
8820;DHT22;4446;50.876;4.736;2023-03-14T02:16:31;10.20;99.90
8820;DHT22;4446;50.876;4.736;2023-03-14T02:18:58;10.20;99.90
8820;DHT22;4446;50.876;4.736;2023-03-14T02:21:34;10.00;99.90
8820;DHT22;4446;50.876;4.736;2023-03-14T02:24:09;9.90;99.90
8820;DHT22;4446;50.876;4.736;2023-03-14T02:26:40;9.70;99.90
8820;DHT22;4446;50.876;4.736;2023-03-14T02:29:11;9.50;99.90
8820;DHT22;4446;50.876;4.736;2023-03-14T02:31:38;9.40;99.90
8820;DHT22;4446;50.876;4.736;2023-03-14T02:34:06;9.40;99.90
8820;DHT22;4446;50.876;4.736;2023-03-14T02:36:33;9.20;99.90
8820;DHT22;4446;50.876;4.736;2023-03-14T02:39:06;9.20;99.90
8820;DHT22;4446;50.876;4.736;2023-03-14T02:41:34;9.20;99.90
8820;DHT22;4446;50.876;4.736;2023-03-14T02:44:01;9.10;99.90
8820;DHT22;4446;50.876;4.736;2023-03-14T02:46:30;9.20;99.90
8820;DHT22;4446;50.876;4.736;2023-03-14T02:48:59;9.10;99.90
8820;DHT22;4446;50.876;4.736;2023-03-14T02:51:28;9.10;99.90
8820;DHT22;4446;50.876;4.736;2023-03-14T02:53:55;9.10;99.90
8820;DHT22;4446;50.876;4.736;2023-03-14T02:56:22;9.00;99.90
8820;DHT22;4446;50.876;4.736;2023-03-14T02:58:49;9.00;99.90
8820;DHT22;4446;50.876;4.736;2023-03-14T03:01:16;9.00;99.90
8820;DHT22;4446;50.876;4.736;2023-03-14T03:03:44;9.00;99.90
8820;DHT22;4446;50.876;4.736;2023-03-14T03:06:11;9.00;99.90
8820;DHT22;4446;50.876;4.736;2023-03-14T03:08:38;9.00;99.90
8820;DHT22;4446;50.876;4.736;2023-03-14T03:11:06;9.00;99.90
8820;DHT22;4446;50.876;4.736;2023-03-14T03:13:32;9.00;99.90
8820;DHT22;4446;50.876;4.736;2023-03-14T03:15:59;9.00;99.90
8820;DHT22;4446;50.876;4.736;2023-03-14T03:18:26;9.10;99.90
8820;DHT22;4446;50.876;4.736;2023-03-14T03:20:55;9.10;99.90
8820;DHT22;4446;50.876;4.736;2023-03-14T03:23:21;9.20;99.90
8820;DHT22;4446;50.876;4.736;2023-03-14T03:25:49;9.10;99.90
8820;DHT22;4446;50.876;4.736;2023-03-14T03:28:16;9.10;99.90
8820;DHT22;4446;50.876;4.736;2023-03-14T03:30:43;9.20;99.90
8820;DHT22;4446;50.876;4.736;2023-03-14T03:33:11;9.20;99.90
8820;DHT22;4446;50.876;4.736;2023-03-14T03:35:43;9.20;99.90
8820;DHT22;4446;50.876;4.736;2023-03-14T03:38:12;9.20;99.90
8820;DHT22;4446;50.876;4.736;2023-03-14T03:40:39;9.30;99.90
8820;DHT22;4446;50.876;4.736;2023-03-14T03:43:06;9.30;99.90
8820;DHT22;4446;50.876;4.736;2023-03-14T03:45:33;9.30;99.90
8820;DHT22;4446;50.876;4.736;2023-03-14T03:47:59;9.30;99.90
8820;DHT22;4446;50.876;4.736;2023-03-14T03:50:27;9.30;99.90
8820;DHT22;4446;50.876;4.736;2023-03-14T03:52:53;9.30;99.90
8820;DHT22;4446;50.876;4.736;2023-03-14T03:55:22;9.30;99.90
8820;DHT22;4446;50.876;4.736;2023-03-14T03:57:49;9.40;99.90
8820;DHT22;4446;50.876;4.736;2023-03-14T04:00:16;9.40;99.90
8820;DHT22;4446;50.876;4.736;2023-03-14T04:02:43;9.40;99.90
8820;DHT22;4446;50.876;4.736;2023-03-14T04:05:10;9.30;99.90
8820;DHT22;4446;50.876;4.736;2023-03-14T04:07:37;9.40;99.90
8820;DHT22;4446;50.876;4.736;2023-03-14T04:10:04;9.40;99.90
8820;DHT22;4446;50.876;4.736;2023-03-14T04:12:33;9.40;99.90
8820;DHT22;4446;50.876;4.736;2023-03-14T04:15:00;9.40;99.90
8820;DHT22;4446;50.876;4.736;2023-03-14T04:17:27;9.40;99.90
8820;DHT22;4446;50.876;4.736;2023-03-14T04:19:53;9.40;99.90
8820;DHT22;4446;50.876;4.736;2023-03-14T04:22:20;9.30;99.90
8820;DHT22;4446;50.876;4.736;2023-03-14T04:24:47;9.30;99.90
8820;DHT22;4446;50.876;4.736;2023-03-14T04:27:14;9.30;99.90
8820;DHT22;4446;50.876;4.736;2023-03-14T04:29:42;9.30;99.90
8820;DHT22;4446;50.876;4.736;2023-03-14T04:32:09;9.40;99.90
8820;DHT22;4446;50.876;4.736;2023-03-14T04:34:36;9.40;99.90
8820;DHT22;4446;50.876;4.736;2023-03-14T04:37:04;9.40;99.90
8820;DHT22;4446;50.876;4.736;2023-03-14T04:39:31;9.40;99.90
8820;DHT22;4446;50.876;4.736;2023-03-14T04:41:57;9.40;99.90
8820;DHT22;4446;50.876;4.736;2023-03-14T04:44:24;9.50;99.90
8820;DHT22;4446;50.876;4.736;2023-03-14T04:46:53;9.50;99.90
8820;DHT22;4446;50.876;4.736;2023-03-14T04:49:20;9.50;99.90
8820;DHT22;4446;50.876;4.736;2023-03-14T04:51:46;9.50;99.90
8820;DHT22;4446;50.876;4.736;2023-03-14T04:54:13;9.50;99.90
8820;DHT22;4446;50.876;4.736;2023-03-14T04:56:40;9.50;99.90
8820;DHT22;4446;50.876;4.736;2023-03-14T04:59:07;9.50;99.90
8820;DHT22;4446;50.876;4.736;2023-03-14T05:01:34;9.50;99.90
8820;DHT22;4446;50.876;4.736;2023-03-14T05:04:03;9.50;99.90
8820;DHT22;4446;50.876;4.736;2023-03-14T05:06:29;9.50;99.90
8820;DHT22;4446;50.876;4.736;2023-03-14T05:08:56;9.50;99.90
8820;DHT22;4446;50.876;4.736;2023-03-14T05:11:23;9.60;99.90
8820;DHT22;4446;50.876;4.736;2023-03-14T05:13:50;9.60;99.90
8820;DHT22;4446;50.876;4.736;2023-03-14T05:16:17;9.60;99.90
8820;DHT22;4446;50.876;4.736;2023-03-14T05:18:44;9.60;99.90
8820;DHT22;4446;50.876;4.736;2023-03-14T05:21:12;9.60;99.90
8820;DHT22;4446;50.876;4.736;2023-03-14T05:23:39;9.70;99.90
8820;DHT22;4446;50.876;4.736;2023-03-14T05:26:06;9.60;99.90
8820;DHT22;4446;50.876;4.736;2023-03-14T05:28:33;9.60;99.90
8820;DHT22;4446;50.876;4.736;2023-03-14T05:31:00;9.60;99.90
8820;DHT22;4446;50.876;4.736;2023-03-14T05:33:27;9.60;99.90
8820;DHT22;4446;50.876;4.736;2023-03-14T05:35:53;9.60;99.90
8820;DHT22;4446;50.876;4.736;2023-03-14T05:38:22;9.60;99.90
8820;DHT22;4446;50.876;4.736;2023-03-14T05:40:48;9.60;99.90
8820;DHT22;4446;50.876;4.736;2023-03-14T05:43:15;9.60;99.90
8820;DHT22;4446;50.876;4.736;2023-03-14T05:45:42;9.60;99.90
8820;DHT22;4446;50.876;4.736;2023-03-14T05:48:09;9.60;99.90
8820;DHT22;4446;50.876;4.736;2023-03-14T05:50:37;9.60;99.90
8820;DHT22;4446;50.876;4.736;2023-03-14T05:53:04;9.60;99.90
8820;DHT22;4446;50.876;4.736;2023-03-14T05:55:32;9.70;99.90
8820;DHT22;4446;50.876;4.736;2023-03-14T05:57:59;9.60;99.90
8820;DHT22;4446;50.876;4.736;2023-03-14T06:00:26;9.70;99.90
8820;DHT22;4446;50.876;4.736;2023-03-14T06:02:53;9.70;99.90
8820;DHT22;4446;50.876;4.736;2023-03-14T06:05:20;9.70;99.90
8820;DHT22;4446;50.876;4.736;2023-03-14T06:07:47;9.80;99.90
8820;DHT22;4446;50.876;4.736;2023-03-14T06:10:14;9.80;99.90
8820;DHT22;4446;50.876;4.736;2023-03-14T06:12:42;9.70;99.90
8820;DHT22;4446;50.876;4.736;2023-03-14T06:15:10;9.80;99.90
8820;DHT22;4446;50.876;4.736;2023-03-14T06:17:37;9.80;99.90
8820;DHT22;4446;50.876;4.736;2023-03-14T06:20:04;9.70;99.90
8820;DHT22;4446;50.876;4.736;2023-03-14T06:22:31;9.70;99.90
8820;DHT22;4446;50.876;4.736;2023-03-14T06:24:58;9.70;99.90
8820;DHT22;4446;50.876;4.736;2023-03-14T06:27:25;9.80;99.90
8820;DHT22;4446;50.876;4.736;2023-03-14T06:29:53;9.80;99.90
8820;DHT22;4446;50.876;4.736;2023-03-14T06:32:20;9.80;99.90
8820;DHT22;4446;50.876;4.736;2023-03-14T06:34:47;9.80;99.90
8820;DHT22;4446;50.876;4.736;2023-03-14T06:37:14;9.80;99.90
8820;DHT22;4446;50.876;4.736;2023-03-14T06:39:41;9.80;99.90
8820;DHT22;4446;50.876;4.736;2023-03-14T06:42:09;9.90;99.90
8820;DHT22;4446;50.876;4.736;2023-03-14T06:44:36;9.90;99.90
8820;DHT22;4446;50.876;4.736;2023-03-14T06:47:05;10.00;99.90
8820;DHT22;4446;50.876;4.736;2023-03-14T06:49:31;10.00;99.90
8820;DHT22;4446;50.876;4.736;2023-03-14T06:51:58;9.90;99.90
8820;DHT22;4446;50.876;4.736;2023-03-14T06:54:25;9.90;99.90
8820;DHT22;4446;50.876;4.736;2023-03-14T06:56:52;9.90;99.90
8820;DHT22;4446;50.876;4.736;2023-03-14T06:59:19;10.00;99.90
8820;DHT22;4446;50.876;4.736;2023-03-14T07:01:46;9.90;99.90
8820;DHT22;4446;50.876;4.736;2023-03-14T07:04:15;9.90;99.90
8820;DHT22;4446;50.876;4.736;2023-03-14T07:06:42;9.90;99.90
8820;DHT22;4446;50.876;4.736;2023-03-14T07:09:09;10.00;99.90
8820;DHT22;4446;50.876;4.736;2023-03-14T07:11:37;9.90;99.90
8820;DHT22;4446;50.876;4.736;2023-03-14T07:14:04;9.90;99.90
8820;DHT22;4446;50.876;4.736;2023-03-14T07:16:31;9.80;99.90
8820;DHT22;4446;50.876;4.736;2023-03-14T07:18:58;9.40;99.90
8820;DHT22;4446;50.876;4.736;2023-03-14T07:21:27;8.90;99.90
8820;DHT22;4446;50.876;4.736;2023-03-14T07:23:54;8.70;99.90
8820;DHT22;4446;50.876;4.736;2023-03-14T07:26:21;8.40;99.90
8820;DHT22;4446;50.876;4.736;2023-03-14T07:28:48;8.10;99.90
8820;DHT22;4446;50.876;4.736;2023-03-14T07:31:15;8.00;99.90
8820;DHT22;4446;50.876;4.736;2023-03-14T07:33:42;7.80;99.90
8820;DHT22;4446;50.876;4.736;2023-03-14T07:36:09;7.70;99.90
8820;DHT22;4446;50.876;4.736;2023-03-14T07:38:37;7.60;99.90
8820;DHT22;4446;50.876;4.736;2023-03-14T07:41:05;7.60;99.90
8820;DHT22;4446;50.876;4.736;2023-03-14T07:43:33;7.50;99.90
8820;DHT22;4446;50.876;4.736;2023-03-14T07:46:00;7.40;99.90
8820;DHT22;4446;50.876;4.736;2023-03-14T07:48:27;7.40;99.90
8820;DHT22;4446;50.876;4.736;2023-03-14T07:50:54;7.30;99.90
8820;DHT22;4446;50.876;4.736;2023-03-14T07:53:22;7.20;99.90
8820;DHT22;4446;50.876;4.736;2023-03-14T07:55:52;7.20;99.90
8820;DHT22;4446;50.876;4.736;2023-03-14T07:58:19;7.30;99.90
8820;DHT22;4446;50.876;4.736;2023-03-14T08:00:47;7.30;99.90
8820;DHT22;4446;50.876;4.736;2023-03-14T08:03:14;7.20;99.90
8820;DHT22;4446;50.876;4.736;2023-03-14T08:05:42;7.20;99.90
8820;DHT22;4446;50.876;4.736;2023-03-14T08:08:09;7.10;99.90
8820;DHT22;4446;50.876;4.736;2023-03-14T08:10:36;7.30;99.90
8820;DHT22;4446;50.876;4.736;2023-03-14T08:13:04;7.20;99.90
8820;DHT22;4446;50.876;4.736;2023-03-14T08:15:31;7.30;99.90
8820;DHT22;4446;50.876;4.736;2023-03-14T08:17:58;7.30;99.90
8820;DHT22;4446;50.876;4.736;2023-03-14T08:20:28;7.40;99.90
8820;DHT22;4446;50.876;4.736;2023-03-14T08:22:55;7.40;99.90
8820;DHT22;4446;50.876;4.736;2023-03-14T08:25:23;7.40;99.90
8820;DHT22;4446;50.876;4.736;2023-03-14T08:27:50;7.50;99.90
8820;DHT22;4446;50.876;4.736;2023-03-14T08:30:19;7.50;99.90
8820;DHT22;4446;50.876;4.736;2023-03-14T08:32:46;7.50;99.90
8820;DHT22;4446;50.876;4.736;2023-03-14T08:35:14;7.50;99.90
8820;DHT22;4446;50.876;4.736;2023-03-14T08:37:41;7.50;99.90
8820;DHT22;4446;50.876;4.736;2023-03-14T08:40:09;7.50;99.90
8820;DHT22;4446;50.876;4.736;2023-03-14T08:42:37;7.50;99.90
8820;DHT22;4446;50.876;4.736;2023-03-14T08:45:06;7.50;99.90
8820;DHT22;4446;50.876;4.736;2023-03-14T08:47:34;7.50;99.90
8820;DHT22;4446;50.876;4.736;2023-03-14T08:50:02;7.40;99.90
8820;DHT22;4446;50.876;4.736;2023-03-14T08:52:29;7.40;99.90
8820;DHT22;4446;50.876;4.736;2023-03-14T08:54:57;7.40;99.90
8820;DHT22;4446;50.876;4.736;2023-03-14T08:57:24;7.40;99.90
8820;DHT22;4446;50.876;4.736;2023-03-14T08:59:53;7.30;99.90
8820;DHT22;4446;50.876;4.736;2023-03-14T09:02:20;7.20;99.90
8820;DHT22;4446;50.876;4.736;2023-03-14T09:04:49;7.20;99.90
8820;DHT22;4446;50.876;4.736;2023-03-14T09:07:16;7.20;99.90
8820;DHT22;4446;50.876;4.736;2023-03-14T09:09:44;7.20;99.90
8820;DHT22;4446;50.876;4.736;2023-03-14T09:12:11;7.20;99.90
8820;DHT22;4446;50.876;4.736;2023-03-14T09:14:38;7.30;99.90
8820;DHT22;4446;50.876;4.736;2023-03-14T09:17:05;7.30;99.90
8820;DHT22;4446;50.876;4.736;2023-03-14T09:19:33;7.30;99.90
8820;DHT22;4446;50.876;4.736;2023-03-14T09:22:02;7.40;99.90
8820;DHT22;4446;50.876;4.736;2023-03-14T09:24:29;7.40;99.90
8820;DHT22;4446;50.876;4.736;2023-03-14T09:26:56;7.50;99.90
8820;DHT22;4446;50.876;4.736;2023-03-14T09:29:23;7.50;99.90
8820;DHT22;4446;50.876;4.736;2023-03-14T09:31:50;7.60;99.90
8820;DHT22;4446;50.876;4.736;2023-03-14T09:34:17;7.50;99.90
8820;DHT22;4446;50.876;4.736;2023-03-14T09:36:44;7.50;99.90
8820;DHT22;4446;50.876;4.736;2023-03-14T09:39:13;7.50;99.90
8820;DHT22;4446;50.876;4.736;2023-03-14T09:41:42;7.50;99.90
8820;DHT22;4446;50.876;4.736;2023-03-14T09:44:14;7.40;99.90
8820;DHT22;4446;50.876;4.736;2023-03-14T09:46:45;7.40;99.90
8820;DHT22;4446;50.876;4.736;2023-03-14T09:49:19;7.30;99.90
8820;DHT22;4446;50.876;4.736;2023-03-14T09:51:48;7.20;99.90
8820;DHT22;4446;50.876;4.736;2023-03-14T09:54:30;7.10;99.90
8820;DHT22;4446;50.876;4.736;2023-03-14T09:56:57;7.10;99.90
8820;DHT22;4446;50.876;4.736;2023-03-14T09:59:25;7.10;99.90
8820;DHT22;4446;50.876;4.736;2023-03-14T10:01:52;7.10;99.90
8820;DHT22;4446;50.876;4.736;2023-03-14T10:04:22;7.10;99.90
8820;DHT22;4446;50.876;4.736;2023-03-14T10:06:49;7.00;99.90
8820;DHT22;4446;50.876;4.736;2023-03-14T10:09:22;7.10;99.90
8820;DHT22;4446;50.876;4.736;2023-03-14T10:11:56;7.10;99.90
8820;DHT22;4446;50.876;4.736;2023-03-14T10:14:31;7.20;99.90
8820;DHT22;4446;50.876;4.736;2023-03-14T10:17:05;7.30;99.90
8820;DHT22;4446;50.876;4.736;2023-03-14T10:19:35;7.40;99.90
8820;DHT22;4446;50.876;4.736;2023-03-14T10:22:04;7.50;99.90
8820;DHT22;4446;50.876;4.736;2023-03-14T10:24:34;7.40;99.90
8820;DHT22;4446;50.876;4.736;2023-03-14T10:27:03;7.30;99.90
8820;DHT22;4446;50.876;4.736;2023-03-14T10:29:31;7.10;99.90
8820;DHT22;4446;50.876;4.736;2023-03-14T10:31:59;7.00;99.90
8820;DHT22;4446;50.876;4.736;2023-03-14T10:34:29;6.90;99.90
8820;DHT22;4446;50.876;4.736;2023-03-14T10:36:58;6.80;99.90
8820;DHT22;4446;50.876;4.736;2023-03-14T10:39:29;6.70;99.90
8820;DHT22;4446;50.876;4.736;2023-03-14T10:42:04;6.70;99.90
8820;DHT22;4446;50.876;4.736;2023-03-14T10:44:33;6.60;99.90
8820;DHT22;4446;50.876;4.736;2023-03-14T10:47:02;6.50;99.90
8820;DHT22;4446;50.876;4.736;2023-03-14T10:49:31;6.50;99.90
8820;DHT22;4446;50.876;4.736;2023-03-14T10:52:02;6.40;99.90
8820;DHT22;4446;50.876;4.736;2023-03-14T10:54:36;6.30;99.90
8820;DHT22;4446;50.876;4.736;2023-03-14T10:57:05;6.30;99.90
8820;DHT22;4446;50.876;4.736;2023-03-14T10:59:35;6.40;99.90
8820;DHT22;4446;50.876;4.736;2023-03-14T11:02:10;6.50;99.90
8820;DHT22;4446;50.876;4.736;2023-03-14T11:04:56;6.70;99.90
8820;DHT22;4446;50.876;4.736;2023-03-14T11:07:33;6.70;99.90
8820;DHT22;4446;50.876;4.736;2023-03-14T11:10:09;6.50;99.90
8820;DHT22;4446;50.876;4.736;2023-03-14T11:12:45;6.50;99.90
8820;DHT22;4446;50.876;4.736;2023-03-14T11:15:18;6.50;99.90
8820;DHT22;4446;50.876;4.736;2023-03-14T11:17:53;6.30;99.90
8820;DHT22;4446;50.876;4.736;2023-03-14T11:20:35;6.20;99.90
8820;DHT22;4446;50.876;4.736;2023-03-14T11:23:13;6.10;99.90
8820;DHT22;4446;50.876;4.736;2023-03-14T11:25:45;6.10;99.90
8820;DHT22;4446;50.876;4.736;2023-03-14T11:28:19;6.10;99.90
8820;DHT22;4446;50.876;4.736;2023-03-14T11:30:51;6.00;99.90
8820;DHT22;4446;50.876;4.736;2023-03-14T11:33:23;5.90;99.90
8820;DHT22;4446;50.876;4.736;2023-03-14T11:35:57;6.00;99.90
8820;DHT22;4446;50.876;4.736;2023-03-14T11:38:30;5.90;99.90
8820;DHT22;4446;50.876;4.736;2023-03-14T11:40:59;5.90;99.90
8820;DHT22;4446;50.876;4.736;2023-03-14T11:43:29;6.00;99.90
8820;DHT22;4446;50.876;4.736;2023-03-14T11:46:03;6.20;99.90
8820;DHT22;4446;50.876;4.736;2023-03-14T11:48:37;6.30;99.90
8820;DHT22;4446;50.876;4.736;2023-03-14T11:51:11;6.50;99.90
8820;DHT22;4446;50.876;4.736;2023-03-14T11:53:46;6.70;99.90
8820;DHT22;4446;50.876;4.736;2023-03-14T11:56:19;6.70;99.90
8820;DHT22;4446;50.876;4.736;2023-03-14T11:58:55;6.70;99.90
8820;DHT22;4446;50.876;4.736;2023-03-14T12:01:29;6.70;99.90
8820;DHT22;4446;50.876;4.736;2023-03-14T12:04:02;6.70;99.90
8820;DHT22;4446;50.876;4.736;2023-03-14T12:06:38;6.90;99.90
8820;DHT22;4446;50.876;4.736;2023-03-14T12:09:11;7.00;99.90
8820;DHT22;4446;50.876;4.736;2023-03-14T12:11:41;7.00;99.90
8820;DHT22;4446;50.876;4.736;2023-03-14T12:14:20;7.00;99.90
8820;DHT22;4446;50.876;4.736;2023-03-14T12:16:49;7.00;99.90
8820;DHT22;4446;50.876;4.736;2023-03-14T12:19:36;7.10;99.90
8820;DHT22;4446;50.876;4.736;2023-03-14T12:22:30;7.10;99.90
8820;DHT22;4446;50.876;4.736;2023-03-14T12:25:02;7.20;99.90
8820;DHT22;4446;50.876;4.736;2023-03-14T12:30:41;7.30;99.90
8820;DHT22;4446;50.876;4.736;2023-03-14T12:36:11;7.30;99.90
8820;DHT22;4446;50.876;4.736;2023-03-14T12:39:02;7.10;99.90
8820;DHT22;4446;50.876;4.736;2023-03-14T12:41:37;6.80;99.90
8820;DHT22;4446;50.876;4.736;2023-03-14T12:44:39;6.60;99.90
8820;DHT22;4446;50.876;4.736;2023-03-14T12:50:18;6.20;99.90
8820;DHT22;4446;50.876;4.736;2023-03-14T12:55:45;6.00;99.90
8820;DHT22;4446;50.876;4.736;2023-03-14T12:58:17;5.80;99.90
8820;DHT22;4446;50.876;4.736;2023-03-14T13:00:54;5.80;99.90
8820;DHT22;4446;50.876;4.736;2023-03-14T13:03:23;5.80;99.90
8820;DHT22;4446;50.876;4.736;2023-03-14T13:05:56;5.80;99.90
8820;DHT22;4446;50.876;4.736;2023-03-14T13:08:37;5.90;99.90
8820;DHT22;4446;50.876;4.736;2023-03-14T13:11:07;5.90;99.90
8820;DHT22;4446;50.876;4.736;2023-03-14T13:13:36;5.90;99.90
8820;DHT22;4446;50.876;4.736;2023-03-14T13:16:04;6.00;99.90
8820;DHT22;4446;50.876;4.736;2023-03-14T13:18:34;6.20;99.90
8820;DHT22;4446;50.876;4.736;2023-03-14T13:21:06;6.30;99.90
8820;DHT22;4446;50.876;4.736;2023-03-14T13:23:37;6.40;99.90
8820;DHT22;4446;50.876;4.736;2023-03-14T13:26:09;6.40;99.90
8820;DHT22;4446;50.876;4.736;2023-03-14T13:28:38;6.50;99.90
8820;DHT22;4446;50.876;4.736;2023-03-14T13:31:05;6.50;99.90
8820;DHT22;4446;50.876;4.736;2023-03-14T13:33:33;6.50;99.90
8820;DHT22;4446;50.876;4.736;2023-03-14T13:36:01;6.40;99.90
8820;DHT22;4446;50.876;4.736;2023-03-14T13:38:31;6.20;99.90
8820;DHT22;4446;50.876;4.736;2023-03-14T13:41:00;6.10;99.90
8820;DHT22;4446;50.876;4.736;2023-03-14T13:43:29;6.00;99.90
8820;DHT22;4446;50.876;4.736;2023-03-14T13:46:03;5.70;99.90
8820;DHT22;4446;50.876;4.736;2023-03-14T13:48:33;5.50;99.90
8820;DHT22;4446;50.876;4.736;2023-03-14T13:51:04;5.20;99.90
8820;DHT22;4446;50.876;4.736;2023-03-14T13:53:42;5.00;99.90
8820;DHT22;4446;50.876;4.736;2023-03-14T13:56:11;4.80;99.90
8820;DHT22;4446;50.876;4.736;2023-03-14T13:58:39;4.70;99.90
8820;DHT22;4446;50.876;4.736;2023-03-14T14:01:12;4.70;99.90
8820;DHT22;4446;50.876;4.736;2023-03-14T14:03:41;4.80;99.90
8820;DHT22;4446;50.876;4.736;2023-03-14T14:06:16;4.90;99.90
8820;DHT22;4446;50.876;4.736;2023-03-14T14:08:45;5.00;99.90
8820;DHT22;4446;50.876;4.736;2023-03-14T14:11:19;5.10;99.90
8820;DHT22;4446;50.876;4.736;2023-03-14T14:13:48;5.40;99.90
8820;DHT22;4446;50.876;4.736;2023-03-14T14:16:16;5.60;99.90
8820;DHT22;4446;50.876;4.736;2023-03-14T14:18:46;5.90;99.90
8820;DHT22;4446;50.876;4.736;2023-03-14T14:21:13;6.10;99.90
8820;DHT22;4446;50.876;4.736;2023-03-14T14:23:40;6.20;99.90
8820;DHT22;4446;50.876;4.736;2023-03-14T14:26:14;6.30;99.90
8820;DHT22;4446;50.876;4.736;2023-03-14T14:28:42;6.50;99.90
8820;DHT22;4446;50.876;4.736;2023-03-14T14:31:20;6.60;99.90
8820;DHT22;4446;50.876;4.736;2023-03-14T14:33:54;6.80;99.90
8820;DHT22;4446;50.876;4.736;2023-03-14T14:36:24;6.80;99.90
8820;DHT22;4446;50.876;4.736;2023-03-14T14:38:58;6.80;99.90
8820;DHT22;4446;50.876;4.736;2023-03-14T14:41:32;6.90;99.90
8820;DHT22;4446;50.876;4.736;2023-03-14T14:44:00;7.00;99.90
8820;DHT22;4446;50.876;4.736;2023-03-14T14:46:32;7.00;99.90
8820;DHT22;4446;50.876;4.736;2023-03-14T14:49:03;6.90;99.90
8820;DHT22;4446;50.876;4.736;2023-03-14T14:51:33;6.90;99.90
8820;DHT22;4446;50.876;4.736;2023-03-14T14:54:12;7.00;99.90
8820;DHT22;4446;50.876;4.736;2023-03-14T14:56:46;7.00;99.90
8820;DHT22;4446;50.876;4.736;2023-03-14T14:59:25;6.90;99.90
8820;DHT22;4446;50.876;4.736;2023-03-14T15:01:57;6.80;99.90
8820;DHT22;4446;50.876;4.736;2023-03-14T15:04:24;6.70;99.90
8820;DHT22;4446;50.876;4.736;2023-03-14T15:06:52;6.60;99.90
8820;DHT22;4446;50.876;4.736;2023-03-14T15:09:20;6.40;99.90
8820;DHT22;4446;50.876;4.736;2023-03-14T15:11:48;6.10;99.90
8820;DHT22;4446;50.876;4.736;2023-03-14T15:14:15;5.80;99.90
8820;DHT22;4446;50.876;4.736;2023-03-14T15:16:42;5.50;99.90
8820;DHT22;4446;50.876;4.736;2023-03-14T15:19:19;5.40;99.90
8820;DHT22;4446;50.876;4.736;2023-03-14T15:21:46;5.30;99.90
8820;DHT22;4446;50.876;4.736;2023-03-14T15:24:13;5.10;99.90
8820;DHT22;4446;50.876;4.736;2023-03-14T15:26:40;5.00;99.90
8820;DHT22;4446;50.876;4.736;2023-03-14T15:29:11;4.90;99.90
8820;DHT22;4446;50.876;4.736;2023-03-14T15:31:40;4.90;99.90
8820;DHT22;4446;50.876;4.736;2023-03-14T15:34:08;5.00;99.90
8820;DHT22;4446;50.876;4.736;2023-03-14T15:36:36;5.30;99.90
8820;DHT22;4446;50.876;4.736;2023-03-14T15:39:05;5.20;99.90
8820;DHT22;4446;50.876;4.736;2023-03-14T15:41:33;5.20;99.90
8820;DHT22;4446;50.876;4.736;2023-03-14T15:44:00;5.30;99.90
8820;DHT22;4446;50.876;4.736;2023-03-14T15:46:28;5.30;99.90
8820;DHT22;4446;50.876;4.736;2023-03-14T15:48:55;5.20;99.90
8820;DHT22;4446;50.876;4.736;2023-03-14T15:51:22;5.40;99.90
8820;DHT22;4446;50.876;4.736;2023-03-14T15:53:49;5.30;99.90
8820;DHT22;4446;50.876;4.736;2023-03-14T15:56:18;5.30;99.90
8820;DHT22;4446;50.876;4.736;2023-03-14T15:58:46;5.30;99.90
8820;DHT22;4446;50.876;4.736;2023-03-14T16:01:13;5.40;99.90
8820;DHT22;4446;50.876;4.736;2023-03-14T16:03:42;5.50;99.90
8820;DHT22;4446;50.876;4.736;2023-03-14T16:06:10;5.40;99.90
8820;DHT22;4446;50.876;4.736;2023-03-14T16:08:37;5.40;99.90
8820;DHT22;4446;50.876;4.736;2023-03-14T16:11:04;5.40;99.90
8820;DHT22;4446;50.876;4.736;2023-03-14T16:13:31;5.20;99.90
8820;DHT22;4446;50.876;4.736;2023-03-14T16:15:59;5.20;99.90
8820;DHT22;4446;50.876;4.736;2023-03-14T16:18:28;5.10;99.90
8820;DHT22;4446;50.876;4.736;2023-03-14T16:20:58;5.20;99.90
8820;DHT22;4446;50.876;4.736;2023-03-14T16:23:27;5.10;99.90
8820;DHT22;4446;50.876;4.736;2023-03-14T16:25:55;5.00;99.90
8820;DHT22;4446;50.876;4.736;2023-03-14T16:28:22;5.10;99.90
8820;DHT22;4446;50.876;4.736;2023-03-14T16:30:49;5.20;99.90
8820;DHT22;4446;50.876;4.736;2023-03-14T16:33:17;5.20;99.90
8820;DHT22;4446;50.876;4.736;2023-03-14T16:35:53;5.20;99.90
8820;DHT22;4446;50.876;4.736;2023-03-14T16:38:22;5.10;99.90